Terminal Aerodrome Forecast
Issued by NWS

Home | Current Version | Previous Version | Text Only | Print | Product List | Glossary On
Versions: 1 2 3 4 5 6 7 8 9 10 11 12 13 14 15 16 17 18 19 20 21 22
000
FTUS41 KPBZ 292036 AAB
TAFDUJ
TAF AMD
KDUJ 292036Z 2921/3018 22005KT P6SM BKN007
     FM292200 31007KT P6SM BKN015
     FM300100 05005KT P6SM BKN030
     FM301000 11007KT P6SM BKN010
     FM301500 15007KT P6SM BKN020=

USA.gov is the U.S. government's official web portal to all federal, state and local government web resources and services.